Pagina principale
METAR-TAF:

METAR-TAF

Aeroporti :

Harriman-and-West Airport

North Adams, Massachusetts, Stati Uniti

latitudine: 42-41-50N, longitudine: 073-10-13W, altezza: 199 m

Osservazione

Il bollettino è stato emesso 19 minuti fa, alle 07:52 UTC
Vento calmo
Temperature 7°C
Umidità 100%
Pressione 1018 hPa
Visibilità: 16.1 km
Cielo sereno

METAR: KAQW 240752Z AUTO 00000KT 10SM CLR 07/07 A3006 RMK AO2 SLP180 T00720067

Ora: 04:11 (08:11 UTC)


TAF: mancante

Osservazioni e previsioni meteorologiche di più di 4000 aeroporti (messaggi METAR e TAF).

Le stazioni disponibili sono rappresentate dai dischi gialli e rossi sulla carta.

Puntare il mouse per vedere il nome della stazione.

Clicca sopra per visualizzare le osservazioni e previsioni meteorologiche.

Per cambiare la mappa : fare clic sui pulsanti verdi con una croce nera per ingrandire, il pulsante verde con un trattino per diminuire, o sulla freccia verde per le mappe adiacenti.


METAR-TAF: